createdAt,value
2019-02-27T00:02:56.182Z,3.23
2019-02-27T00:07:58.929Z,2.43
2019-02-27T00:13:02.309Z,3.53
2019-02-27T00:18:05.691Z,2.60
2019-02-27T00:23:09.063Z,2.53
2019-02-27T00:28:12.443Z,2.70
2019-02-27T00:33:15.828Z,2.20
2019-02-27T00:38:19.203Z,2.70
2019-02-27T00:43:22.579Z,3.20
2019-02-27T00:48:26.686Z,1.60
2019-02-27T00:53:30.119Z,3.90
2019-02-27T00:58:33.502Z,1.80
2019-02-27T01:03:36.895Z,3.07
2019-02-27T01:08:40.273Z,2.23
2019-02-27T01:13:43.672Z,2.00
2019-02-27T01:18:47.055Z,2.20
2019-02-27T01:23:50.439Z,2.47
2019-02-27T01:28:53.814Z,2.13
2019-02-27T01:33:57.199Z,3.20
2019-02-27T01:39:00.590Z,3.13
2019-02-27T01:44:04.043Z,2.47
2019-02-27T01:49:07.431Z,2.80
2019-02-27T01:54:12.216Z,2.97
2019-02-27T01:59:16.972Z,2.73
2019-02-27T02:04:21.071Z,2.97
2019-02-27T02:09:35.363Z,3.10
2019-02-27T02:14:56.579Z,2.97
2019-02-27T02:20:20.755Z,2.13
2019-02-27T02:25:44.913Z,2.37
2019-02-27T02:30:51.363Z,2.87
2019-02-27T02:36:06.568Z,1.30
2019-02-27T02:41:47.921Z,2.30
2019-02-27T02:47:02.991Z,2.57
2019-02-27T02:52:21.328Z,2.33
2019-02-27T02:57:45.757Z,2.07
2019-02-27T03:02:57.521Z,3.10
2019-02-27T03:08:03.403Z,1.90
2019-02-27T03:13:27.557Z,2.87
2019-02-27T03:18:48.622Z,2.60
2019-02-27T03:23:57.733Z,2.10
2019-02-27T03:29:24.859Z,2.60
2019-02-27T03:34:51.799Z,2.47
2019-02-27T03:40:01.007Z,2.27
2019-02-27T03:45:30.652Z,2.27
2019-02-27T03:50:52.701Z,2.07
2019-02-27T03:56:19.824Z,2.07
2019-02-27T04:01:31.973Z,1.60
2019-02-27T04:06:44.133Z,1.90
2019-02-27T04:11:47.519Z,1.37
2019-02-27T04:16:50.903Z,3.17
2019-02-27T04:21:54.279Z,2.97
2019-02-27T04:26:57.660Z,2.30
2019-02-27T04:32:01.046Z,3.40
2019-02-27T04:37:04.458Z,2.00
2019-02-27T04:42:07.821Z,1.97
2019-02-27T04:47:11.248Z,2.67
2019-02-27T04:52:14.641Z,2.20
2019-02-27T04:57:18.010Z,2.90
2019-02-27T05:02:21.403Z,3.13
2019-02-27T05:07:24.799Z,1.63
2019-02-27T05:12:28.183Z,2.30
2019-02-27T05:17:31.572Z,1.20
2019-02-27T05:22:34.954Z,3.00
2019-02-27T05:27:38.339Z,1.67
2019-02-27T05:32:41.733Z,2.50
2019-02-27T05:37:45.101Z,2.70
2019-02-27T05:42:48.489Z,1.57
2019-02-27T05:47:51.862Z,1.60
2019-02-27T05:52:55.251Z,2.20
2019-02-27T05:57:58.734Z,2.27
2019-02-27T06:03:02.117Z,1.83
2019-02-27T06:08:05.506Z,3.17
2019-02-27T06:13:08.879Z,3.43
2019-02-27T06:18:12.278Z,2.60
2019-02-27T06:23:15.660Z,2.13
2019-02-27T06:28:19.438Z,2.30
2019-02-27T06:33:22.815Z,2.33
2019-02-27T06:38:26.188Z,2.13
2019-02-27T06:43:29.586Z,1.87
2019-02-27T06:48:32.964Z,1.57
2019-02-27T06:53:36.356Z,2.10
2019-02-27T06:58:39.719Z,2.97
2019-02-27T07:03:43.118Z,1.87
2019-02-27T07:08:46.483Z,2.43
2019-02-27T07:13:49.879Z,2.67
2019-02-27T07:18:53.267Z,2.07
2019-02-27T07:23:58.585Z,2.63
2019-02-27T07:29:01.753Z,1.87
2019-02-27T07:34:05.131Z,2.53
2019-02-27T07:39:08.519Z,3.23
2019-02-27T07:44:11.899Z,2.90
2019-02-27T07:49:15.280Z,2.63
2019-02-27T07:54:18.661Z,2.00
2019-02-27T07:59:22.115Z,2.30
2019-02-27T08:04:25.483Z,2.23
2019-02-27T08:09:30.200Z,3.30
2019-02-27T08:14:36.936Z,2.30
2019-02-27T08:19:39.306Z,2.17
2019-02-27T08:24:42.692Z,3.93
2019-02-27T08:29:46.059Z,2.30
2019-02-27T08:34:49.443Z,2.27
2019-02-27T08:39:52.900Z,2.40
2019-02-27T08:44:56.356Z,3.00
2019-02-27T08:49:59.731Z,3.50
2019-02-27T08:55:05.613Z,2.67
2019-02-27T09:00:14.214Z,3.57
2019-02-27T09:05:19.773Z,3.70
2019-02-27T09:10:26.688Z,4.80
2019-02-27T09:15:29.284Z,3.30
2019-02-27T09:20:32.679Z,3.00
2019-02-27T09:25:36.072Z,3.77
2019-02-27T09:30:39.455Z,4.30
2019-02-27T09:35:42.835Z,2.97
2019-02-27T09:40:46.220Z,2.80
2019-02-27T09:45:49.608Z,3.70
2019-02-27T09:50:52.987Z,3.13
2019-02-27T09:55:56.375Z,4.47
2019-02-27T10:01:03.220Z,3.00
2019-02-27T10:06:08.718Z,3.13
2019-02-27T10:11:11.852Z,3.57
2019-02-27T10:16:15.226Z,4.47
2019-02-27T10:21:18.613Z,3.97
2019-02-27T10:26:22.656Z,3.30
2019-02-27T10:31:26.937Z,3.03
2019-02-27T10:36:30.418Z,4.30
2019-02-27T10:41:33.885Z,3.70
2019-02-27T10:46:37.278Z,2.97
2019-02-27T10:51:41.539Z,2.80
2019-02-27T10:56:45.779Z,3.80
2019-02-27T11:01:49.170Z,3.73
2019-02-27T11:06:52.549Z,4.17
2019-02-27T11:11:55.943Z,4.90
2019-02-27T11:17:02.437Z,4.10
2019-02-27T11:22:04.431Z,4.23
2019-02-27T11:27:07.823Z,3.80
2019-02-27T11:32:11.212Z,3.70
2019-02-27T11:37:16.428Z,2.90
2019-02-27T11:42:19.691Z,3.83
2019-02-27T11:47:23.083Z,3.97
2019-02-27T11:52:28.644Z,3.33
2019-02-27T11:57:31.663Z,2.80
2019-02-27T12:02:37.830Z,2.90
2019-02-27T12:07:40.147Z,2.60
2019-02-27T12:12:43.536Z,2.00
2019-02-27T12:17:47.100Z,1.67
2019-02-27T12:22:50.485Z,2.20
2019-02-27T12:27:55.547Z,1.93
2019-02-27T12:32:59.014Z,1.30
2019-02-27T12:38:07.232Z,1.50
2019-02-27T12:43:07.711Z,1.80
2019-02-27T12:48:12.611Z,1.57
2019-02-27T12:53:20.747Z,1.47
2019-02-27T12:58:24.279Z,1.50
2019-02-27T13:03:26.382Z,2.03
2019-02-27T13:08:29.759Z,1.57
2019-02-27T13:13:33.147Z,1.90
2019-02-27T13:18:36.536Z,1.80
2019-02-27T13:23:42.273Z,2.17
2019-02-27T13:28:46.022Z,2.50
2019-02-27T13:33:50.127Z,1.97
2019-02-27T13:38:53.512Z,2.23
2019-02-27T13:43:58.219Z,2.10
2019-02-27T13:49:02.027Z,1.70
2019-02-27T13:54:05.415Z,2.07
2019-02-27T13:59:10.998Z,1.87
2019-02-27T14:04:13.928Z,2.27
2019-02-27T14:09:18.975Z,1.93
2019-02-27T14:14:22.471Z,1.63
2019-02-27T14:19:25.856Z,1.50
2019-02-27T14:24:29.237Z,1.43
2019-02-27T14:29:32.615Z,1.80
2019-02-27T14:34:36.013Z,1.77
2019-02-27T14:39:39.409Z,1.60
2019-02-27T14:44:42.797Z,1.37
2019-02-27T14:49:46.195Z,2.00
2019-02-27T14:54:49.604Z,1.53
2019-02-27T14:59:52.999Z,1.37
2019-02-27T15:04:56.392Z,1.23
2019-02-27T15:09:59.783Z,1.37
2019-02-27T15:15:03.800Z,1.37
2019-02-27T15:20:10.399Z,1.47
2019-02-27T15:25:15.715Z,1.30
2019-02-27T15:30:28.096Z,1.00
2019-02-27T15:35:31.497Z,1.17
2019-02-27T15:40:34.942Z,1.23
2019-02-27T15:45:47.277Z,1.80
2019-02-27T15:50:43.451Z,1.57
2019-02-27T15:55:46.841Z,1.20
2019-02-27T16:00:52.624Z,1.23
2019-02-27T16:05:55.403Z,1.00
2019-02-27T16:10:58.782Z,1.17
2019-02-27T16:16:02.172Z,0.97
2019-02-27T16:21:05.556Z,1.53
2019-02-27T16:26:08.934Z,1.73
2019-02-27T16:31:12.319Z,1.57
2019-02-27T16:36:16.439Z,1.10
2019-02-27T16:41:19.871Z,1.50
2019-02-27T16:46:23.317Z,1.20
2019-02-27T16:51:26.997Z,1.90
2019-02-27T16:56:30.417Z,1.50
2019-02-27T17:01:33.982Z,1.47
2019-02-27T17:06:37.371Z,1.87
2019-02-27T17:11:40.759Z,1.40
2019-02-27T17:16:44.864Z,1.67
2019-02-27T17:21:48.919Z,0.93
2019-02-27T17:26:52.305Z,1.50
2019-02-27T17:31:56.490Z,1.80
2019-02-27T17:36:59.855Z,1.37
2019-02-27T17:42:03.234Z,1.57
2019-02-27T17:47:08.153Z,1.30
2019-02-27T17:52:14.331Z,1.10
2019-02-27T17:57:16.679Z,1.30
2019-02-27T18:02:20.137Z,1.50
2019-02-27T18:07:23.523Z,2.10
2019-02-27T18:12:27.618Z,2.07
2019-02-27T18:17:34.641Z,1.40
2019-02-27T18:22:36.184Z,1.20
2019-02-27T18:27:39.567Z,2.13
2019-02-27T18:32:42.960Z,2.10
2019-02-27T18:37:46.587Z,1.50
2019-02-27T18:42:55.362Z,2.30
2019-02-27T18:47:55.179Z,1.20
2019-02-27T18:52:58.572Z,1.57
2019-02-27T18:58:01.976Z,2.30
2019-02-27T19:03:10.015Z,1.60
2019-02-27T19:08:13.479Z,2.03
2019-02-27T19:13:16.943Z,1.10
2019-02-27T19:18:20.337Z,2.17
2019-02-27T19:23:25.654Z,1.70
2019-02-27T19:28:29.097Z,1.50
2019-02-27T19:33:35.880Z,2.93
2019-02-27T19:38:37.774Z,2.50
2019-02-27T19:43:41.146Z,2.43
2019-02-27T19:48:44.616Z,2.60
2019-02-27T19:53:47.992Z,2.33
2019-02-27T19:58:52.183Z,1.63
2019-02-27T20:03:55.789Z,2.30
2019-02-27T20:08:59.239Z,3.57
2019-02-27T20:14:03.563Z,2.10
2019-02-27T20:19:07.004Z,1.60
2019-02-27T20:24:14.442Z,1.93
2019-02-27T20:29:15.655Z,2.70
2019-02-27T20:34:19.039Z,2.10
2019-02-27T20:39:23.577Z,2.37
2019-02-27T20:44:27.521Z,2.53
2019-02-27T20:49:30.887Z,2.53
2019-02-27T20:54:34.275Z,1.53
2019-02-27T20:59:37.655Z,2.60
2019-02-27T21:04:41.045Z,3.07
2019-02-27T21:09:45.163Z,1.90
2019-02-27T21:14:49.297Z,1.60
2019-02-27T21:19:52.687Z,2.57
2019-02-27T21:24:56.063Z,2.40
2019-02-27T21:29:59.444Z,3.17
2019-02-27T21:35:02.883Z,2.47
2019-02-27T21:40:09.434Z,3.43
2019-02-27T21:45:17.044Z,3.50
2019-02-27T21:50:27.143Z,2.80
2019-02-27T21:55:30.531Z,2.67
2019-02-27T22:00:33.922Z,2.80
2019-02-27T22:05:42.752Z,2.17
2019-02-27T22:10:42.402Z,2.40
2019-02-27T22:15:45.779Z,1.60
2019-02-27T22:20:49.163Z,2.73
2019-02-27T22:25:52.548Z,3.43
2019-02-27T22:30:55.935Z,2.80
2019-02-27T22:35:59.315Z,2.30
2019-02-27T22:41:02.728Z,2.30
2019-02-27T22:46:06.137Z,2.40
2019-02-27T22:51:12.606Z,2.27
2019-02-27T22:56:16.844Z,2.30
2019-02-27T23:01:22.951Z,2.63
2019-02-27T23:06:26.337Z,1.57
2019-02-27T23:11:29.719Z,1.90
2019-02-27T23:16:33.099Z,2.47
2019-02-27T23:21:36.559Z,2.20
2019-02-27T23:26:39.940Z,2.20
2019-02-27T23:31:43.325Z,1.97
2019-02-27T23:36:46.720Z,2.20
2019-02-27T23:41:50.116Z,2.80
2019-02-27T23:46:57.097Z,2.53
2019-02-27T23:51:58.607Z,2.40
2019-02-27T23:57:02.004Z,1.97
